Time;durP1;ratioP1;P1;durP2;ratioP2;P2;SDS_P1;SDS_P2;PMS_P1;PMS_P2;Temp;Humidity;BMP_temperature;BMP_pressure;BME280_temperature;BME280_humidity;BME280_pressure;Samples;Min_cycle;Max_cycle;Signal;HPM_P1;HPM_P2
2023/04/07 00:02:16;;;;;;;32.88;24.98;;;7.50;99.90;;;;;;5117893;27;20039;-34
2023/04/07 00:04:42;;;;;;;33.53;25.65;;;7.50;99.90;;;;;;5117832;27;20434;-34
2023/04/07 00:07:08;;;;;;;31.80;25.17;;;7.50;99.90;;;;;;5111896;28;20176;-34
2023/04/07 00:09:33;;;;;;;35.28;25.15;;;7.40;99.90;;;;;;5103128;27;20035;-33
2023/04/07 00:12:02;;;;;;;42.58;27.85;;;7.40;99.90;;;;;;5117382;27;20046;-34
2023/04/07 00:14:28;;;;;;;38.50;27.75;;;7.30;99.90;;;;;;5115755;27;20119;-33
2023/04/07 00:16:56;;;;;;;36.30;27.15;;;7.40;99.90;;;;;;5117706;27;20529;-34
2023/04/07 00:19:21;;;;;;;36.70;26.27;;;7.60;99.90;;;;;;5117336;27;20031;-33
2023/04/07 00:21:47;;;;;;;34.13;26.23;;;7.40;99.90;;;;;;5117383;27;20055;-33
2023/04/07 00:24:13;;;;;;;35.72;27.55;;;7.50;99.90;;;;;;5118769;27;20035;-33
2023/04/07 00:26:38;;;;;;;33.42;24.48;;;7.40;99.90;;;;;;5108462;27;20085;-33
2023/04/07 00:29:04;;;;;;;40.72;29.38;;;7.40;99.90;;;;;;5110815;27;20066;-33
2023/04/07 00:31:30;;;;;;;40.45;29.13;;;7.40;99.90;;;;;;5117592;27;20043;-33
2023/04/07 00:33:56;;;;;;;40.83;29.73;;;7.30;99.90;;;;;;5105583;27;20561;-33
2023/04/07 00:36:22;;;;;;;38.85;28.73;;;7.40;99.90;;;;;;5101013;28;20482;-34
2023/04/07 00:38:48;;;;;;;39.75;28.50;;;7.50;99.90;;;;;;5115085;27;20126;-33
2023/04/07 00:41:14;;;;;;;37.83;27.50;;;7.40;99.90;;;;;;5117055;27;20122;-34
2023/04/07 00:43:40;;;;;;;38.30;29.15;;;7.30;99.90;;;;;;5112909;27;20074;-33
2023/04/07 00:46:06;;;;;;;38.40;28.20;;;7.40;99.90;;;;;;5116891;27;20445;-33
2023/04/07 00:48:34;;;;;;;38.78;27.95;;;7.40;99.90;;;;;;5116967;27;20499;-33
2023/04/07 00:50:59;;;;;;;33.47;26.50;;;7.40;99.90;;;;;;5112248;28;20448;-32
2023/04/07 00:53:25;;;;;;;35.33;26.70;;;7.60;99.90;;;;;;5109225;27;20062;-33
2023/04/07 00:55:51;;;;;;;40.13;29.67;;;7.40;99.90;;;;;;5116678;27;20039;-33
2023/04/07 00:58:16;;;;;;;36.83;28.17;;;7.40;99.90;;;;;;5113134;27;20078;-34
2023/04/07 01:00:49;;;;;;;37.35;28.55;;;7.40;99.90;;;;;;5109934;27;20043;-33
2023/04/07 01:03:25;;;;;;;35.28;25.85;;;7.50;99.90;;;;;;5101569;28;20090;-33
2023/04/07 01:06:00;;;;;;;37.15;28.13;;;7.50;99.90;;;;;;5099342;27;20042;-34
2023/04/07 01:08:47;;;;;;;34.35;27.73;;;7.30;99.90;;;;;;5129894;27;20077;-33
2023/04/07 01:11:34;;;;;;;35.20;27.52;;;7.50;99.90;;;;;;5115377;27;20095;-33
2023/04/07 01:14:00;;;;;;;37.03;27.17;;;7.40;99.90;;;;;;5116196;27;20078;-34
2023/04/07 01:16:40;;;;;;;36.15;26.50;;;7.30;99.90;;;;;;5110453;28;20063;-33
2023/04/07 01:19:21;;;;;;;34.65;26.60;;;7.50;99.90;;;;;;5110137;27;20494;-33
2023/04/07 01:21:51;;;;;;;39.90;29.83;;;7.50;99.90;;;;;;5105498;27;20464;-33
2023/04/07 01:24:38;;;;;;;39.00;29.50;;;7.40;99.90;;;;;;5103084;27;20043;-32
2023/04/07 01:27:38;;;;;;;39.03;28.42;;;7.40;99.90;;;;;;5095500;28;20465;-34
2023/04/07 01:30:09;;;;;;;35.97;27.92;;;7.20;99.90;;;;;;5101344;27;20095;-33
2023/04/07 01:32:36;;;;;;;43.92;30.08;;;7.40;99.90;;;;;;5134261;27;20035;-34
2023/04/07 01:35:03;;;;;;;33.35;26.48;;;7.40;99.90;;;;;;5115838;27;20076;-34
2023/04/07 01:37:30;;;;;;;41.63;29.40;;;7.40;99.90;;;;;;5116009;27;20479;-33
2023/04/07 01:39:56;;;;;;;44.63;31.48;;;7.40;99.90;;;;;;5097653;28;20108;-33
2023/04/07 01:42:23;;;;;;;37.72;27.73;;;7.30;99.90;;;;;;5115482;27;20495;-34
2023/04/07 01:44:49;;;;;;;38.45;28.10;;;7.40;99.90;;;;;;5115622;27;20035;-34
2023/04/07 01:47:16;;;;;;;37.05;27.98;;;7.50;99.90;;;;;;5112169;27;20039;-33
2023/04/07 01:49:44;;;;;;;35.35;26.98;;;7.40;99.90;;;;;;5115753;27;20045;-33
2023/04/07 01:52:10;;;;;;;33.35;28.48;;;7.40;99.90;;;;;;5112863;27;20039;-33
2023/04/07 01:54:36;;;;;;;37.67;27.85;;;7.60;99.90;;;;;;5113339;27;20039;-33
2023/04/07 01:57:02;;;;;;;37.90;27.55;;;7.50;99.90;;;;;;5115483;27;20399;-33
2023/04/07 01:59:29;;;;;;;41.25;29.38;;;7.30;99.90;;;;;;5115630;27;20050;-34
2023/04/07 02:01:55;;;;;;;47.30;32.92;;;7.50;99.90;;;;;;5115999;27;20035;-34
2023/04/07 02:04:42;;;;;;;41.83;30.35;;;7.30;99.90;;;;;;5115529;27;20122;-34
2023/04/07 02:07:14;;;;;;;41.95;30.25;;;7.50;99.90;;;;;;5118876;27;20585;-34
2023/04/07 02:09:41;;;;;;;41.08;29.45;;;7.40;99.90;;;;;;5106828;27;20069;-34
2023/04/07 02:12:10;;;;;;;38.63;29.27;;;7.50;99.90;;;;;;5135427;27;20435;-33
2023/04/07 02:14:37;;;;;;;39.00;28.45;;;7.50;99.90;;;;;;5106614;27;20429;-33
2023/04/07 02:17:04;;;;;;;41.58;30.45;;;7.50;99.90;;;;;;5111517;28;20040;-34
2023/04/07 02:19:30;;;;;;;39.03;28.23;;;7.50;99.90;;;;;;5115522;27;20039;-34
2023/04/07 02:21:56;;;;;;;38.67;28.27;;;7.40;99.90;;;;;;5108806;28;20449;-32
2023/04/07 02:24:22;;;;;;;37.72;27.65;;;7.40;99.90;;;;;;5102455;27;20046;-32
2023/04/07 02:26:48;;;;;;;40.58;30.08;;;7.50;99.90;;;;;;5114120;27;20035;-34
2023/04/07 02:29:13;;;;;;;40.15;28.52;;;7.30;99.90;;;;;;5115227;27;20531;-33
2023/04/07 02:31:39;;;;;;;44.80;30.67;;;7.40;99.90;;;;;;5113437;27;20035;-33
2023/04/07 02:34:05;;;;;;;39.97;30.05;;;7.50;99.90;;;;;;5094223;28;20036;-34
2023/04/07 02:36:31;;;;;;;42.97;30.35;;;7.40;99.90;;;;;;5100632;28;20105;-33
2023/04/07 02:38:57;;;;;;;35.15;26.13;;;7.40;99.90;;;;;;5089862;28;20044;-33
2023/04/07 02:41:22;;;;;;;45.47;30.98;;;7.40;99.90;;;;;;5114841;27;20050;-32
2023/04/07 02:43:49;;;;;;;45.28;31.13;;;7.30;99.90;;;;;;5114843;27;20081;-34
2023/04/07 02:46:15;;;;;;;34.97;26.73;;;7.40;99.90;;;;;;5108830;28;20457;-33
2023/04/07 02:48:41;;;;;;;42.28;30.10;;;7.40;99.90;;;;;;5106628;28;20035;-33
2023/04/07 02:51:06;;;;;;;35.13;27.60;;;7.30;99.90;;;;;;5118793;27;20034;-34
2023/04/07 02:53:32;;;;;;;43.38;29.67;;;7.30;99.90;;;;;;5125382;27;20458;-33
2023/04/07 02:55:58;;;;;;;43.10;30.70;;;7.30;99.90;;;;;;5114328;27;20049;-33
2023/04/07 02:58:24;;;;;;;38.35;28.50;;;7.30;99.90;;;;;;5100429;27;20039;-33
2023/04/07 03:00:49;;;;;;;39.40;29.23;;;7.40;99.90;;;;;;5085661;28;20047;-33
2023/04/07 03:03:15;;;;;;;33.28;26.52;;;7.40;99.90;;;;;;5094762;28;20035;-33
2023/04/07 03:05:41;;;;;;;32.28;25.77;;;7.50;99.90;;;;;;5131389;27;20046;-34
2023/04/07 03:08:06;;;;;;;40.40;29.05;;;7.40;99.90;;;;;;5114805;28;20481;-33
2023/04/07 03:10:32;;;;;;;35.33;26.75;;;7.40;99.90;;;;;;5113773;28;20539;-33
2023/04/07 03:12:58;;;;;;;39.70;28.08;;;7.40;99.90;;;;;;5112397;28;20050;-34
2023/04/07 03:15:23;;;;;;;40.58;29.27;;;7.40;99.90;;;;;;5110256;28;20038;-34
2023/04/07 03:17:49;;;;;;;39.45;27.70;;;7.40;99.90;;;;;;5107845;28;20047;-34
2023/04/07 03:20:16;;;;;;;30.77;25.02;;;7.40;99.90;;;;;;5131023;28;20278;-34
2023/04/07 03:22:43;;;;;;;32.28;24.60;;;7.40;99.90;;;;;;5114065;28;20035;-34
2023/04/07 03:25:09;;;;;;;43.20;29.15;;;7.50;99.90;;;;;;5114999;27;20034;-34
2023/04/07 03:27:35;;;;;;;33.08;25.58;;;7.40;99.90;;;;;;5117520;27;20035;-33
2023/04/07 03:30:01;;;;;;;36.30;26.67;;;7.40;99.90;;;;;;5113904;27;20039;-34
2023/04/07 03:32:27;;;;;;;33.17;24.98;;;7.40;99.90;;;;;;5101337;27;20054;-33
2023/04/07 03:34:53;;;;;;;36.15;25.67;;;7.40;99.90;;;;;;5118474;27;20043;-33
2023/04/07 03:37:18;;;;;;;32.95;25.00;;;7.50;99.90;;;;;;5112739;28;20492;-34
2023/04/07 03:39:44;;;;;;;38.95;29.13;;;7.40;99.90;;;;;;5100030;27;20459;-33
2023/04/07 03:42:10;;;;;;;39.60;26.92;;;7.40;99.90;;;;;;5118127;27;20099;-34
2023/04/07 03:44:35;;;;;;;32.85;26.13;;;7.50;99.90;;;;;;5109918;27;20124;-33
2023/04/07 03:47:01;;;;;;;35.60;26.70;;;7.40;99.90;;;;;;5105652;28;20485;-33
2023/04/07 03:49:27;;;;;;;34.13;26.83;;;7.40;99.90;;;;;;5106343;27;20031;-34
2023/04/07 03:51:52;;;;;;;39.47;28.60;;;7.40;99.90;;;;;;5106016;28;20515;-33
2023/04/07 03:54:18;;;;;;;41.05;29.00;;;7.30;99.90;;;;;;5099785;27;20126;-34
2023/04/07 03:56:44;;;;;;;43.85;30.58;;;7.40;99.90;;;;;;5117982;27;20042;-34
2023/04/07 03:59:10;;;;;;;36.90;27.02;;;7.40;99.90;;;;;;5111856;27;20157;-33
2023/04/07 04:01:36;;;;;;;33.97;26.08;;;7.40;99.90;;;;;;5113983;27;20035;-34
2023/04/07 04:04:01;;;;;;;31.77;24.92;;;7.40;99.90;;;;;;5124842;27;20035;-34
2023/04/07 04:06:27;;;;;;;36.40;26.35;;;7.40;99.90;;;;;;5119925;27;20038;-34
2023/04/07 04:08:53;;;;;;;33.30;25.38;;;7.30;99.90;;;;;;5113199;28;20036;-34
2023/04/07 04:11:18;;;;;;;42.67;28.27;;;7.40;99.90;;;;;;5103698;28;20048;-33
2023/04/07 04:13:44;;;;;;;30.92;24.10;;;7.30;99.90;;;;;;5114526;27;20035;-33
2023/04/07 04:16:10;;;;;;;29.98;23.70;;;7.40;99.90;;;;;;5117360;27;20035;-33
2023/04/07 04:18:36;;;;;;;29.73;23.05;;;7.40;99.90;;;;;;5117738;27;20037;-33
2023/04/07 04:21:01;;;;;;;31.35;25.15;;;7.40;99.90;;;;;;5110397;27;20047;-33
2023/04/07 04:23:27;;;;;;;34.67;25.30;;;7.30;99.90;;;;;;5117317;27;20035;-33
2023/04/07 04:25:58;;;;;;;33.38;24.83;;;7.40;99.90;;;;;;5117449;27;20034;-33
2023/04/07 04:28:24;;;;;;;36.90;26.30;;;7.30;99.90;;;;;;5106045;28;20067;-33
2023/04/07 04:30:50;;;;;;;32.67;25.67;;;7.30;99.90;;;;;;5105592;28;20436;-34
2023/04/07 04:33:15;;;;;;;31.27;24.60;;;7.30;99.90;;;;;;5104810;27;20042;-33
2023/04/07 04:35:41;;;;;;;36.92;26.63;;;7.10;99.90;;;;;;5117513;27;20035;-34
2023/04/07 04:38:07;;;;;;;34.67;25.85;;;7.30;99.90;;;;;;5117757;27;20061;-34
2023/04/07 04:40:32;;;;;;;30.33;24.80;;;7.30;99.90;;;;;;5113761;27;20039;-33
2023/04/07 04:42:58;;;;;;;38.40;26.13;;;7.30;99.90;;;;;;5112729;28;20039;-33
2023/04/07 04:45:24;;;;;;;32.50;25.17;;;7.40;99.90;;;;;;5091880;27;20035;-33
2023/04/07 04:47:50;;;;;;;34.58;25.98;;;7.40;99.90;;;;;;5107732;28;20260;-33
2023/04/07 04:50:16;;;;;;;38.00;26.90;;;7.30;99.90;;;;;;5126175;27;20567;-33
2023/04/07 04:52:42;;;;;;;36.88;26.42;;;7.30;99.90;;;;;;5097772;27;20492;-34
2023/04/07 04:55:08;;;;;;;33.83;25.83;;;7.10;99.90;;;;;;5114998;27;20108;-34
2023/04/07 04:57:35;;;;;;;37.72;26.30;;;7.30;99.90;;;;;;5114673;27;20039;-33
2023/04/07 05:00:02;;;;;;;32.97;24.67;;;7.40;99.90;;;;;;5111121;27;20039;-33
2023/04/07 05:02:28;;;;;;;31.23;24.10;;;7.30;99.90;;;;;;5116596;27;20065;-33
2023/04/07 05:04:54;;;;;;;39.38;28.08;;;7.20;99.90;;;;;;5104709;27;20035;-34
2023/04/07 05:07:22;;;;;;;37.20;25.52;;;7.30;99.90;;;;;;5093586;28;20481;-34
2023/04/07 05:09:48;;;;;;;35.40;26.60;;;7.30;99.90;;;;;;5121366;27;20530;-33
2023/04/07 05:12:14;;;;;;;32.33;24.58;;;7.20;99.90;;;;;;5103576;27;20040;-34
2023/04/07 05:14:40;;;;;;;30.50;22.65;;;7.30;99.90;;;;;;5105318;27;20039;-33
2023/04/07 05:17:06;;;;;;;30.73;24.23;;;7.30;99.90;;;;;;5115242;27;20041;-33
2023/04/07 05:19:32;;;;;;;33.70;24.58;;;7.30;99.90;;;;;;5112487;27;20097;-33
2023/04/07 05:21:58;;;;;;;35.92;24.98;;;7.50;99.90;;;;;;5108439;28;20073;-33
2023/04/07 05:24:28;;;;;;;33.45;25.30;;;7.30;99.90;;;;;;5085228;27;20066;-33
2023/04/07 05:26:55;;;;;;;31.38;23.88;;;7.30;99.90;;;;;;5133354;27;20070;-34
2023/04/07 05:29:21;;;;;;;31.90;25.02;;;7.40;99.90;;;;;;5108699;28;20043;-33
2023/04/07 05:31:46;;;;;;;34.42;26.25;;;7.30;99.90;;;;;;5104817;28;20399;-33
2023/04/07 05:34:12;;;;;;;39.38;28.38;;;7.30;99.90;;;;;;5103524;27;20050;-33
2023/04/07 05:36:38;;;;;;;38.25;27.52;;;7.40;99.90;;;;;;5114250;27;20088;-33
2023/04/07 05:39:04;;;;;;;37.65;28.55;;;7.30;99.90;;;;;;5102300;27;20044;-33
2023/04/07 05:41:30;;;;;;;40.58;27.73;;;7.40;99.90;;;;;;5109327;27;20046;-33
2023/04/07 05:43:55;;;;;;;40.35;29.58;;;7.30;99.90;;;;;;5109075;28;20519;-33
2023/04/07 05:46:21;;;;;;;36.67;27.75;;;7.40;99.90;;;;;;5114430;27;20101;-33
2023/04/07 05:48:47;;;;;;;34.53;26.45;;;7.30;99.90;;;;;;5114637;27;20032;-34
2023/04/07 05:51:13;;;;;;;35.33;26.40;;;7.40;99.90;;;;;;5101426;27;20047;-33
2023/04/07 05:53:38;;;;;;;38.72;27.60;;;7.30;99.90;;;;;;5115110;27;20039;-33
2023/04/07 05:56:04;;;;;;;32.45;25.95;;;7.20;99.90;;;;;;5114222;27;20046;-33
2023/04/07 05:58:30;;;;;;;33.88;25.50;;;7.30;99.90;;;;;;5115622;27;20122;-33
2023/04/07 06:00:56;;;;;;;32.13;25.30;;;7.30;99.90;;;;;;5111262;28;20386;-32
2023/04/07 06:03:22;;;;;;;32.22;24.17;;;7.40;99.90;;;;;;5104223;28;20043;-33
2023/04/07 06:05:47;;;;;;;28.15;22.83;;;7.40;99.90;;;;;;5112585;27;20400;-33
2023/04/07 06:08:13;;;;;;;32.03;24.45;;;7.50;99.90;;;;;;5108353;28;20031;-33
2023/04/07 06:10:40;;;;;;;33.53;25.00;;;7.40;99.90;;;;;;5133046;27;20436;-33
2023/04/07 06:13:06;;;;;;;35.17;25.92;;;7.40;99.90;;;;;;5112087;27;20368;-33
2023/04/07 06:15:32;;;;;;;35.55;25.70;;;7.30;99.90;;;;;;5113666;27;20090;-33
2023/04/07 06:17:58;;;;;;;32.95;24.83;;;7.40;99.90;;;;;;5095850;28;20118;-33
2023/04/07 06:20:26;;;;;;;33.25;23.70;;;7.50;99.90;;;;;;5104023;27;20110;-33
2023/04/07 06:22:53;;;;;;;33.28;25.40;;;7.50;99.90;;;;;;5125753;27;20043;-33
2023/04/07 06:25:19;;;;;;;35.30;25.92;;;7.60;99.90;;;;;;5121096;27;20042;-33
2023/04/07 06:27:45;;;;;;;36.60;26.20;;;7.60;99.90;;;;;;5091882;28;20039;-33
2023/04/07 06:30:11;;;;;;;28.27;22.85;;;7.60;99.90;;;;;;5095098;28;20442;-33
2023/04/07 06:32:36;;;;;;;31.02;24.55;;;7.50;99.90;;;;;;5094597;28;20430;-33
2023/04/07 06:35:02;;;;;;;32.28;24.67;;;7.60;99.90;;;;;;5104774;27;20049;-33
2023/04/07 06:37:28;;;;;;;33.08;24.75;;;7.70;99.90;;;;;;5116978;27;20503;-33
2023/04/07 06:39:54;;;;;;;30.08;24.40;;;7.70;99.90;;;;;;5114675;27;20031;-33
2023/04/07 06:42:19;;;;;;;33.58;23.60;;;7.70;99.90;;;;;;5114659;27;20035;-33
2023/04/07 06:44:45;;;;;;;31.95;24.05;;;7.80;99.90;;;;;;5114798;27;20039;-33
2023/04/07 06:47:11;;;;;;;29.02;23.33;;;7.80;99.90;;;;;;5133926;27;20035;-34
2023/04/07 06:49:36;;;;;;;28.15;22.23;;;7.90;99.90;;;;;;5107772;27;20120;-33
2023/04/07 06:52:02;;;;;;;29.15;23.17;;;7.80;99.90;;;;;;5105736;27;20039;-33
2023/04/07 06:54:28;;;;;;;29.98;23.60;;;7.70;99.90;;;;;;5114637;27;20054;-33
2023/04/07 06:56:53;;;;;;;28.55;22.40;;;7.90;99.90;;;;;;5097925;27;20055;-32
2023/04/07 06:59:19;;;;;;;28.05;23.08;;;8.00;99.90;;;;;;5110588;27;20496;-33
2023/04/07 07:01:49;;;;;;;27.25;21.63;;;8.10;99.90;;;;;;5113906;27;20046;-33
2023/04/07 07:04:15;;;;;;;25.30;21.00;;;8.20;99.90;;;;;;5099182;27;20449;-34
2023/04/07 07:06:41;;;;;;;23.50;20.42;;;8.20;99.90;;;;;;5123728;27;20039;-34
2023/04/07 07:09:07;;;;;;;25.70;21.05;;;8.20;99.90;;;;;;5102639;28;20031;-34
2023/04/07 07:11:32;;;;;;;26.67;20.92;;;8.30;99.90;;;;;;5096976;28;20396;-34
2023/04/07 07:13:58;;;;;;;28.10;21.48;;;8.20;99.90;;;;;;5103816;28;20449;-34
2023/04/07 07:16:24;;;;;;;22.63;19.00;;;8.30;99.90;;;;;;5101679;27;20039;-34
2023/04/07 07:18:50;;;;;;;25.33;20.30;;;8.30;99.90;;;;;;5107698;28;20036;-34
2023/04/07 07:21:17;;;;;;;25.02;21.00;;;8.30;99.90;;;;;;5113944;27;20114;-34
2023/04/07 07:23:43;;;;;;;22.63;18.65;;;8.40;99.90;;;;;;5108589;28;20066;-34
2023/04/07 07:26:09;;;;;;;23.27;19.02;;;8.40;99.90;;;;;;5111680;28;20062;-34
2023/04/07 07:28:35;;;;;;;25.83;20.90;;;8.40;99.90;;;;;;5097590;28;20114;-34
2023/04/07 07:31:08;;;;;;;22.08;18.90;;;8.50;99.90;;;;;;5109637;28;20067;-34
2023/04/07 07:33:34;;;;;;;;;;;8.50;99.90;;;;;;5105575;27;20031;-34
2023/04/07 07:36:00;;;;;;;22.20;18.30;;;8.50;99.90;;;;;;5103440;28;19964;-34
2023/04/07 07:38:26;;;;;;;24.80;20.15;;;8.50;99.90;;;;;;5106964;27;20070;-34
2023/04/07 07:40:52;;;;;;;22.98;18.58;;;8.40;99.90;;;;;;5110768;28;20373;-34
2023/04/07 07:43:18;;;;;;;23.92;19.02;;;8.60;99.90;;;;;;5110007;28;20043;-34
2023/04/07 07:45:43;;;;;;;21.85;18.48;;;8.50;99.90;;;;;;5112944;27;20031;-34
2023/04/07 07:48:10;;;;;;;21.25;18.88;;;8.60;99.90;;;;;;5113701;28;20095;-33
2023/04/07 07:50:35;;;;;;;21.27;18.35;;;8.80;99.90;;;;;;5111522;28;20040;-34
2023/04/07 07:53:01;;;;;;;21.40;18.02;;;8.90;99.90;;;;;;5108341;28;20400;-34
2023/04/07 07:55:27;;;;;;;20.00;17.20;;;8.90;99.90;;;;;;5110414;28;20039;-34
2023/04/07 07:57:53;;;;;;;19.45;17.27;;;9.00;99.90;;;;;;5102247;28;20488;-34
2023/04/07 08:00:18;;;;;;;19.77;17.48;;;9.00;99.90;;;;;;5098283;28;20047;-33
2023/04/07 08:02:44;;;;;;;19.85;16.85;;;9.10;99.90;;;;;;5119617;27;20038;-33
2023/04/07 08:05:10;;;;;;;18.85;16.85;;;9.10;99.90;;;;;;5115993;27;20118;-33
2023/04/07 08:07:36;;;;;;;18.92;16.60;;;9.20;99.90;;;;;;5119773;27;20414;-33
2023/04/07 08:10:02;;;;;;;19.30;16.38;;;9.20;99.90;;;;;;5112586;28;20060;-33
2023/04/07 08:12:27;;;;;;;18.05;15.02;;;9.20;99.90;;;;;;5109994;28;20428;-34
2023/04/07 08:14:53;;;;;;;16.83;15.02;;;9.20;99.90;;;;;;5115612;27;20039;-33
2023/04/07 08:17:19;;;;;;;18.50;15.98;;;9.20;99.90;;;;;;5114393;27;20397;-33
2023/04/07 08:19:45;;;;;;;16.98;15.07;;;9.20;99.90;;;;;;5123125;27;20043;-33
2023/04/07 08:22:11;;;;;;;17.23;15.43;;;9.20;99.90;;;;;;5116230;27;20370;-33
2023/04/07 08:24:36;;;;;;;19.08;16.92;;;9.30;99.90;;;;;;5114758;27;20035;-33
2023/04/07 08:27:02;;;;;;;20.08;17.98;;;9.20;99.90;;;;;;5122812;27;20130;-33
2023/04/07 08:29:28;;;;;;;21.45;18.75;;;9.20;99.90;;;;;;5115240;27;20034;-33
2023/04/07 08:31:53;;;;;;;21.42;18.92;;;9.40;99.90;;;;;;5113910;27;20110;-33
2023/04/07 08:34:20;;;;;;;20.73;18.45;;;9.30;99.90;;;;;;5124609;27;20043;-33
2023/04/07 08:36:46;;;;;;;21.23;18.92;;;9.40;99.90;;;;;;5116992;27;20084;-33
2023/04/07 08:39:11;;;;;;;21.50;18.67;;;9.40;99.90;;;;;;5115883;27;20073;-33
2023/04/07 08:41:40;;;;;;;23.63;20.08;;;9.40;99.90;;;;;;5113069;27;20092;-33
2023/04/07 08:44:10;;;;;;;22.50;20.10;;;9.40;99.90;;;;;;5119981;27;20502;-33
2023/04/07 08:46:38;;;;;;;21.77;19.52;;;9.50;99.90;;;;;;5114947;27;20039;-33
2023/04/07 08:49:09;;;;;;;22.60;19.58;;;9.50;99.90;;;;;;5111822;27;20488;-33
2023/04/07 08:51:37;;;;;;;22.70;19.15;;;9.60;99.90;;;;;;5115363;27;20039;-33
2023/04/07 08:54:09;;;;;;;21.70;19.40;;;9.60;99.90;;;;;;5107145;27;20095;-33
2023/04/07 08:56:42;;;;;;;22.83;19.52;;;9.60;99.90;;;;;;5125672;27;20045;-33
2023/04/07 08:59:09;;;;;;;21.17;18.48;;;9.50;99.90;;;;;;5119157;27;20119;-33
2023/04/07 09:01:35;;;;;;;23.27;20.27;;;9.60;99.90;;;;;;5114878;27;20043;-33
2023/04/07 09:04:02;;;;;;;22.98;19.55;;;9.50;99.90;;;;;;5117829;27;20039;-33
2023/04/07 09:06:32;;;;;;;23.50;19.83;;;9.50;99.90;;;;;;5112877;27;20114;-33
2023/04/07 09:08:59;;;;;;;25.90;21.38;;;9.60;99.90;;;;;;5096518;27;20039;-33
2023/04/07 09:11:29;;;;;;;26.65;21.80;;;9.60;99.90;;;;;;5114837;27;20027;-33
2023/04/07 09:13:55;;;;;;;28.75;24.30;;;9.50;99.90;;;;;;5112519;27;20099;-33
2023/04/07 09:16:22;;;;;;;28.25;23.70;;;9.50;99.90;;;;;;5113613;27;20696;-33
2023/04/07 09:18:48;;;;;;;30.63;24.30;;;9.60;99.90;;;;;;5113064;27;20039;-33
2023/04/07 09:21:14;;;;;;;29.52;23.65;;;9.40;99.90;;;;;;5100891;28;20036;-33
2023/04/07 09:23:41;;;;;;;29.67;24.38;;;9.50;99.90;;;;;;5105143;27;20080;-33
2023/04/07 09:26:25;;;;;;;29.65;23.30;;;9.60;99.90;;;;;;5133059;27;20109;-33
2023/04/07 09:29:00;;;;;;;29.85;23.42;;;9.60;99.90;;;;;;5109264;27;20046;-33
2023/04/07 09:31:45;;;;;;;26.27;22.15;;;9.60;99.90;;;;;;5106445;27;20396;-33
2023/04/07 09:34:29;;;;;;;27.08;22.67;;;9.70;99.90;;;;;;5112252;27;20039;-33
2023/04/07 09:36:56;;;;;;;27.85;23.23;;;9.70;99.90;;;;;;5113170;27;20040;-33
2023/04/07 09:39:22;;;;;;;27.77;22.80;;;9.80;99.90;;;;;;5113968;27;20080;-33
2023/04/07 09:41:48;;;;;;;26.60;22.50;;;9.70;99.90;;;;;;5114096;27;20039;-33
2023/04/07 09:44:13;;;;;;;27.30;23.17;;;9.70;99.90;;;;;;5117957;27;20057;-33
2023/04/07 09:46:53;;;;;;;27.58;22.02;;;9.80;99.90;;;;;;5105288;28;20035;-33
2023/04/07 09:49:20;;;;;;;19.92;17.05;;;10.00;99.90;;;;;;5113571;27;20035;-33
2023/04/07 09:52:06;;;;;;;21.45;16.67;;;9.80;99.90;;;;;;5101709;27;20120;-33
2023/04/07 09:54:37;;;;;;;10.38;9.27;;;9.90;99.90;;;;;;5108942;27;20110;-33
2023/04/07 09:57:05;;;;;;;10.35;9.18;;;9.90;99.90;;;;;;5106864;27;20043;-33
2023/04/07 09:59:33;;;;;;;9.60;8.57;;;9.90;99.90;;;;;;5108434;27;20122;-33
2023/04/07 10:02:00;;;;;;;9.70;8.80;;;10.10;99.90;;;;;;5107964;27;20050;-33
2023/04/07 10:04:26;;;;;;;10.63;9.52;;;10.10;99.90;;;;;;5112905;27;20091;-33
2023/04/07 10:06:53;;;;;;;10.23;9.15;;;10.20;99.90;;;;;;5111468;27;20529;-33
2023/04/07 10:09:22;;;;;;;12.60;10.93;;;10.20;99.90;;;;;;5108423;27;20031;-33
2023/04/07 10:11:49;;;;;;;13.18;11.23;;;10.40;99.90;;;;;;5106312;27;20039;-33
2023/04/07 10:14:24;;;;;;;11.95;10.70;;;10.40;99.90;;;;;;5107589;27;20562;-33
2023/04/07 10:16:50;;;;;;;11.18;9.98;;;10.50;99.90;;;;;;5107591;27;20392;-33
2023/04/07 10:19:18;;;;;;;10.18;8.85;;;10.40;99.90;;;;;;5118633;27;20041;-33
2023/04/07 10:21:45;;;;;;;9.57;8.68;;;10.40;99.90;;;;;;5109713;27;20078;-33
2023/04/07 10:24:30;;;;;;;8.38;7.43;;;10.30;99.90;;;;;;5105268;27;20484;-33
2023/04/07 10:27:01;;;;;;;8.43;7.10;;;10.30;99.90;;;;;;5116098;27;20393;-33
2023/04/07 10:29:33;;;;;;;8.57;7.60;;;10.30;99.90;;;;;;5107202;27;20030;-33
2023/04/07 10:32:00;;;;;;;9.60;7.78;;;10.20;99.90;;;;;;5109812;28;20097;-33
2023/04/07 10:34:53;;;;;;;7.70;6.63;;;10.50;99.90;;;;;;5100723;28;20035;-34
2023/04/07 10:37:22;;;;;;;6.93;6.30;;;10.70;99.90;;;;;;5130898;27;20043;-33
2023/04/07 10:39:50;;;;;;;7.60;6.90;;;11.00;99.90;;;;;;5114049;27;20043;-34
2023/04/07 10:42:38;;;;;;;8.13;7.30;;;11.20;99.90;;;;;;5110459;27;20035;-34
2023/04/07 10:45:06;;;;;;;7.40;6.60;;;11.60;99.90;;;;;;5114571;27;20506;-34
2023/04/07 10:47:31;;;;;;;8.18;7.38;;;11.60;99.90;;;;;;5112826;27;20028;-34
2023/04/07 10:50:19;;;;;;;8.77;7.88;;;11.70;99.90;;;;;;5106043;27;20023;-34
2023/04/07 10:52:48;;;;;;;8.93;8.00;;;11.50;99.90;;;;;;5122870;27;20083;-34
2023/04/07 10:55:32;;;;;;;9.55;8.63;;;11.30;99.90;;;;;;5111498;27;20518;-33
2023/04/07 10:58:14;;;;;;;;;;;11.20;99.90;;;;;;5114140;27;20553;-33
2023/04/07 11:00:39;;;;;;;8.32;6.97;;;10.80;99.90;;;;;;5109831;27;19984;-33
2023/04/07 11:03:12;;;;;;;9.07;7.45;;;10.80;99.90;;;;;;5120650;27;20502;-33
2023/04/07 11:05:42;;;;;;;8.18;7.38;;;10.70;99.90;;;;;;5108845;28;20035;-33
2023/04/07 11:08:08;;;;;;;9.07;8.18;;;10.60;99.90;;;;;;5114160;27;20039;-33
2023/04/07 11:10:34;;;;;;;8.32;7.53;;;10.50;99.90;;;;;;5109003;28;20057;-33
2023/04/07 11:13:05;;;;;;;8.82;7.78;;;10.60;99.90;;;;;;5111796;28;20047;-33
2023/04/07 11:15:32;;;;;;;8.00;7.25;;;10.50;99.90;;;;;;5107209;27;20031;-33
2023/04/07 11:18:14;;;;;;;8.73;7.50;;;10.50;99.90;;;;;;5105684;28;20046;-33
2023/04/07 11:20:56;;;;;;;7.93;6.90;;;10.40;99.90;;;;;;5123087;27;20042;-33
2023/04/07 11:23:24;;;;;;;8.15;7.30;;;10.30;99.90;;;;;;5111725;28;20035;-33
2023/04/07 11:25:51;;;;;;;8.80;7.05;;;10.10;99.90;;;;;;5106299;27;20126;-33
2023/04/07 11:28:17;;;;;;;7.97;7.07;;;10.20;99.90;;;;;;5113525;28;20043;-34
2023/04/07 11:30:51;;;;;;;8.15;7.35;;;10.30;99.90;;;;;;5110571;27;20042;-33
2023/04/07 11:33:23;;;;;;;8.25;7.45;;;10.20;99.90;;;;;;5111266;28;20035;-33
2023/04/07 11:35:56;;;;;;;9.98;8.20;;;10.30;99.90;;;;;;5118193;27;20519;-34
2023/04/07 11:38:28;;;;;;;9.10;7.80;;;10.20;99.90;;;;;;5108276;28;20045;-33
2023/04/07 11:40:55;;;;;;;9.10;7.57;;;10.30;99.90;;;;;;5113059;28;20035;-33
2023/04/07 11:43:25;;;;;;;8.50;7.63;;;10.30;99.90;;;;;;5113199;28;20035;-33
2023/04/07 11:46:10;;;;;;;9.18;7.90;;;10.30;99.90;;;;;;5121592;27;20549;-33
2023/04/07 11:48:38;;;;;;;9.82;8.82;;;10.60;99.90;;;;;;5121007;27;20031;-33
2023/04/07 11:51:04;;;;;;;9.75;8.73;;;10.40;99.90;;;;;;5117047;27;20488;-33
2023/04/07 11:53:32;;;;;;;9.75;8.73;;;10.50;99.90;;;;;;5120780;27;20031;-33
2023/04/07 11:56:11;;;;;;;9.32;8.23;;;10.40;99.90;;;;;;5119335;27;20032;-33
2023/04/07 11:58:37;;;;;;;10.90;8.80;;;10.50;99.90;;;;;;5113755;27;20392;-33
2023/04/07 12:01:07;;;;;;;9.23;8.32;;;10.40;99.90;;;;;;5118465;27;20071;-33
2023/04/07 12:03:35;;;;;;;9.65;8.20;;;10.30;99.90;;;;;;5110322;27;20074;-33
2023/04/07 12:06:02;;;;;;;9.13;7.90;;;10.30;99.90;;;;;;5112403;27;20031;-33
2023/04/07 12:08:39;;;;;;;9.25;7.95;;;10.20;99.90;;;;;;5140830;27;20046;-33
2023/04/07 12:11:05;;;;;;;9.07;7.57;;;10.30;99.90;;;;;;5133253;27;20612;-36
2023/04/07 12:13:31;;;;;;;9.85;8.23;;;10.20;99.90;;;;;;5119489;27;20488;-33
2023/04/07 12:16:00;;;;;;;9.30;7.82;;;10.30;99.90;;;;;;5125614;27;20038;-33
2023/04/07 12:18:27;;;;;;;9.38;8.30;;;10.20;99.90;;;;;;5125992;27;20423;-33
2023/04/07 12:20:53;;;;;;;9.10;7.93;;;10.20;99.90;;;;;;5108673;28;20028;-33
2023/04/07 12:23:21;;;;;;;9.30;8.30;;;10.20;99.90;;;;;;5111306;27;20035;-33
2023/04/07 12:25:47;;;;;;;9.75;7.95;;;10.30;99.90;;;;;;5108708;27;20028;-35
2023/04/07 12:28:13;;;;;;;9.07;8.18;;;10.20;99.90;;;;;;5118072;27;20042;-35
2023/04/07 12:30:39;;;;;;;9.43;8.27;;;10.20;99.90;;;;;;5110682;27;20032;-33
2023/04/07 12:33:05;;;;;;;8.70;7.80;;;10.30;99.90;;;;;;5110631;27;20050;-33
2023/04/07 12:35:31;;;;;;;9.02;7.53;;;10.30;99.90;;;;;;5113278;27;20035;-33
2023/04/07 12:37:56;;;;;;;9.18;8.18;;;10.30;99.90;;;;;;5121754;27;20035;-33
2023/04/07 12:40:23;;;;;;;10.45;9.35;;;10.40;99.90;;;;;;5119021;27;20039;-33
2023/04/07 12:42:49;;;;;;;10.18;9.07;;;10.40;99.90;;;;;;5115815;27;20047;-34